sensor_id;sensor_type;location;lat;lon;timestamp;temperature;humidity
2387;DHT22;49473;50.772;8.768;2022-10-16T00:02:13;14.90;99.90
2387;DHT22;49473;50.772;8.768;2022-10-16T00:04:41;14.90;99.90
2387;DHT22;49473;50.772;8.768;2022-10-16T00:07:08;15.00;99.90
2387;DHT22;49473;50.772;8.768;2022-10-16T00:09:35;15.00;99.90
2387;DHT22;49473;50.772;8.768;2022-10-16T00:12:03;15.00;99.90
2387;DHT22;49473;50.772;8.768;2022-10-16T00:14:32;15.00;99.90
2387;DHT22;49473;50.772;8.768;2022-10-16T00:16:59;15.00;99.90
2387;DHT22;49473;50.772;8.768;2022-10-16T00:19:26;14.90;99.90
2387;DHT22;49473;50.772;8.768;2022-10-16T00:21:53;14.80;99.90
2387;DHT22;49473;50.772;8.768;2022-10-16T00:24:19;14.80;99.90
2387;DHT22;49473;50.772;8.768;2022-10-16T00:26:49;14.70;99.90
2387;DHT22;49473;50.772;8.768;2022-10-16T00:29:17;14.70;99.90
2387;DHT22;49473;50.772;8.768;2022-10-16T00:31:44;14.60;99.90
2387;DHT22;49473;50.772;8.768;2022-10-16T00:34:11;14.50;99.90
2387;DHT22;49473;50.772;8.768;2022-10-16T00:36:38;14.50;99.90
2387;DHT22;49473;50.772;8.768;2022-10-16T00:39:05;14.50;99.90
2387;DHT22;49473;50.772;8.768;2022-10-16T00:41:32;14.40;99.90
2387;DHT22;49473;50.772;8.768;2022-10-16T00:44:00;14.30;99.90
2387;DHT22;49473;50.772;8.768;2022-10-16T00:46:37;14.30;99.90
2387;DHT22;49473;50.772;8.768;2022-10-16T00:49:06;14.20;99.90
2387;DHT22;49473;50.772;8.768;2022-10-16T00:51:37;14.20;99.90
2387;DHT22;49473;50.772;8.768;2022-10-16T00:54:08;14.10;99.90
2387;DHT22;49473;50.772;8.768;2022-10-16T00:56:35;14.10;99.90
2387;DHT22;49473;50.772;8.768;2022-10-16T00:59:04;14.10;99.90
2387;DHT22;49473;50.772;8.768;2022-10-16T01:01:34;14.10;99.90
2387;DHT22;49473;50.772;8.768;2022-10-16T01:04:01;14.00;99.90
2387;DHT22;49473;50.772;8.768;2022-10-16T01:06:34;14.00;99.90
2387;DHT22;49473;50.772;8.768;2022-10-16T01:09:14;14.00;99.90
2387;DHT22;49473;50.772;8.768;2022-10-16T01:11:49;13.90;99.90
2387;DHT22;49473;50.772;8.768;2022-10-16T01:14:23;13.80;99.90
2387;DHT22;49473;50.772;8.768;2022-10-16T01:17:00;13.80;99.90
2387;DHT22;49473;50.772;8.768;2022-10-16T01:19:46;13.80;99.90
2387;DHT22;49473;50.772;8.768;2022-10-16T01:22:16;13.80;99.90
2387;DHT22;49473;50.772;8.768;2022-10-16T01:24:46;13.80;99.90
2387;DHT22;49473;50.772;8.768;2022-10-16T01:27:21;13.80;99.90
2387;DHT22;49473;50.772;8.768;2022-10-16T01:29:54;13.70;99.90
2387;DHT22;49473;50.772;8.768;2022-10-16T01:32:30;13.70;99.90
2387;DHT22;49473;50.772;8.768;2022-10-16T01:35:02;13.60;99.90
2387;DHT22;49473;50.772;8.768;2022-10-16T01:37:34;13.60;99.90
2387;DHT22;49473;50.772;8.768;2022-10-16T01:40:05;13.50;99.90
2387;DHT22;49473;50.772;8.768;2022-10-16T01:42:38;13.50;99.90
2387;DHT22;49473;50.772;8.768;2022-10-16T01:45:07;13.50;99.90
2387;DHT22;49473;50.772;8.768;2022-10-16T01:47:37;13.60;99.90
2387;DHT22;49473;50.772;8.768;2022-10-16T01:50:06;13.60;99.90
2387;DHT22;49473;50.772;8.768;2022-10-16T01:52:35;13.60;99.90
2387;DHT22;49473;50.772;8.768;2022-10-16T01:55:06;13.60;99.90
2387;DHT22;49473;50.772;8.768;2022-10-16T01:57:37;13.60;99.90
2387;DHT22;49473;50.772;8.768;2022-10-16T02:00:08;13.50;99.90
2387;DHT22;49473;50.772;8.768;2022-10-16T02:02:38;13.60;99.90
2387;DHT22;49473;50.772;8.768;2022-10-16T02:05:12;13.60;99.90
2387;DHT22;49473;50.772;8.768;2022-10-16T02:07:41;13.60;99.90
2387;DHT22;49473;50.772;8.768;2022-10-16T02:10:09;13.60;99.90
2387;DHT22;49473;50.772;8.768;2022-10-16T02:12:39;13.60;99.90
2387;DHT22;49473;50.772;8.768;2022-10-16T02:15:08;13.70;99.90
2387;DHT22;49473;50.772;8.768;2022-10-16T02:17:35;13.70;99.90
2387;DHT22;49473;50.772;8.768;2022-10-16T02:20:03;13.60;99.90
2387;DHT22;49473;50.772;8.768;2022-10-16T02:22:32;13.60;99.90
2387;DHT22;49473;50.772;8.768;2022-10-16T02:25:04;13.60;99.90
2387;DHT22;49473;50.772;8.768;2022-10-16T02:27:38;13.50;99.90
2387;DHT22;49473;50.772;8.768;2022-10-16T02:30:07;13.40;99.90
2387;DHT22;49473;50.772;8.768;2022-10-16T02:32:41;13.40;99.90
2387;DHT22;49473;50.772;8.768;2022-10-16T02:35:09;13.40;99.90
2387;DHT22;49473;50.772;8.768;2022-10-16T02:37:37;13.30;99.90
2387;DHT22;49473;50.772;8.768;2022-10-16T02:40:06;13.20;99.90
2387;DHT22;49473;50.772;8.768;2022-10-16T02:42:37;13.10;99.90
2387;DHT22;49473;50.772;8.768;2022-10-16T02:45:05;13.10;99.90
2387;DHT22;49473;50.772;8.768;2022-10-16T02:47:32;13.00;99.90
2387;DHT22;49473;50.772;8.768;2022-10-16T02:49:59;13.00;99.90
2387;DHT22;49473;50.772;8.768;2022-10-16T02:52:26;13.00;99.90
2387;DHT22;49473;50.772;8.768;2022-10-16T02:54:53;13.00;99.90
2387;DHT22;49473;50.772;8.768;2022-10-16T02:57:19;13.00;99.90
2387;DHT22;49473;50.772;8.768;2022-10-16T02:59:47;13.00;99.90
2387;DHT22;49473;50.772;8.768;2022-10-16T03:02:14;12.90;99.90
2387;DHT22;49473;50.772;8.768;2022-10-16T03:04:41;12.90;99.90
2387;DHT22;49473;50.772;8.768;2022-10-16T03:07:08;12.80;99.90
2387;DHT22;49473;50.772;8.768;2022-10-16T03:09:35;12.70;99.90
2387;DHT22;49473;50.772;8.768;2022-10-16T03:12:02;12.80;99.90
2387;DHT22;49473;50.772;8.768;2022-10-16T03:14:28;12.80;99.90
2387;DHT22;49473;50.772;8.768;2022-10-16T03:16:57;12.80;99.90
2387;DHT22;49473;50.772;8.768;2022-10-16T03:19:24;12.80;99.90
2387;DHT22;49473;50.772;8.768;2022-10-16T03:21:51;12.80;99.90
2387;DHT22;49473;50.772;8.768;2022-10-16T03:24:17;12.80;99.90
2387;DHT22;49473;50.772;8.768;2022-10-16T03:26:44;12.90;99.90
2387;DHT22;49473;50.772;8.768;2022-10-16T03:29:11;13.00;99.90
2387;DHT22;49473;50.772;8.768;2022-10-16T03:31:38;13.00;99.90
2387;DHT22;49473;50.772;8.768;2022-10-16T03:34:06;13.00;99.90
2387;DHT22;49473;50.772;8.768;2022-10-16T03:36:33;12.90;99.90
2387;DHT22;49473;50.772;8.768;2022-10-16T03:39:00;13.00;99.90
2387;DHT22;49473;50.772;8.768;2022-10-16T03:41:26;13.00;99.90
2387;DHT22;49473;50.772;8.768;2022-10-16T03:43:53;13.10;99.90
2387;DHT22;49473;50.772;8.768;2022-10-16T03:46:20;13.10;99.90
2387;DHT22;49473;50.772;8.768;2022-10-16T03:48:47;13.20;99.90
2387;DHT22;49473;50.772;8.768;2022-10-16T03:51:15;13.10;99.90
2387;DHT22;49473;50.772;8.768;2022-10-16T03:53:42;13.00;99.90
2387;DHT22;49473;50.772;8.768;2022-10-16T03:56:08;12.90;99.90
2387;DHT22;49473;50.772;8.768;2022-10-16T03:58:35;12.90;99.90
2387;DHT22;49473;50.772;8.768;2022-10-16T04:01:03;13.00;99.90
2387;DHT22;49473;50.772;8.768;2022-10-16T04:03:30;13.10;99.90
2387;DHT22;49473;50.772;8.768;2022-10-16T04:05:56;13.10;99.90
2387;DHT22;49473;50.772;8.768;2022-10-16T04:08:25;13.20;99.90
2387;DHT22;49473;50.772;8.768;2022-10-16T04:10:52;13.10;99.90
2387;DHT22;49473;50.772;8.768;2022-10-16T04:13:19;13.00;99.90
2387;DHT22;49473;50.772;8.768;2022-10-16T04:15:46;13.10;99.90
2387;DHT22;49473;50.772;8.768;2022-10-16T04:18:12;13.10;99.90
2387;DHT22;49473;50.772;8.768;2022-10-16T04:20:40;13.10;99.90
2387;DHT22;49473;50.772;8.768;2022-10-16T04:23:07;13.20;99.90
2387;DHT22;49473;50.772;8.768;2022-10-16T04:25:35;13.20;99.90
2387;DHT22;49473;50.772;8.768;2022-10-16T04:28:02;13.20;99.90
2387;DHT22;49473;50.772;8.768;2022-10-16T04:30:29;13.30;99.90
2387;DHT22;49473;50.772;8.768;2022-10-16T04:32:56;13.30;99.90
2387;DHT22;49473;50.772;8.768;2022-10-16T04:35:23;13.40;99.90
2387;DHT22;49473;50.772;8.768;2022-10-16T04:37:50;13.30;99.90
2387;DHT22;49473;50.772;8.768;2022-10-16T04:40:17;13.10;99.90
2387;DHT22;49473;50.772;8.768;2022-10-16T04:42:45;13.10;99.90
2387;DHT22;49473;50.772;8.768;2022-10-16T04:45:12;13.10;99.90
2387;DHT22;49473;50.772;8.768;2022-10-16T04:47:39;13.20;99.90
2387;DHT22;49473;50.772;8.768;2022-10-16T04:50:06;13.20;99.90
2387;DHT22;49473;50.772;8.768;2022-10-16T04:52:33;13.30;99.90
2387;DHT22;49473;50.772;8.768;2022-10-16T04:55:00;13.40;99.90
2387;DHT22;49473;50.772;8.768;2022-10-16T04:57:28;13.50;99.90
2387;DHT22;49473;50.772;8.768;2022-10-16T04:59:56;13.40;99.90
2387;DHT22;49473;50.772;8.768;2022-10-16T05:02:23;13.50;99.90
2387;DHT22;49473;50.772;8.768;2022-10-16T05:04:50;13.50;99.90
2387;DHT22;49473;50.772;8.768;2022-10-16T05:07:18;13.40;99.90
2387;DHT22;49473;50.772;8.768;2022-10-16T05:09:44;13.50;99.90
2387;DHT22;49473;50.772;8.768;2022-10-16T05:12:11;13.40;99.90
2387;DHT22;49473;50.772;8.768;2022-10-16T05:14:38;13.40;99.90
2387;DHT22;49473;50.772;8.768;2022-10-16T05:17:06;13.40;99.90
2387;DHT22;49473;50.772;8.768;2022-10-16T05:19:33;13.50;99.90
2387;DHT22;49473;50.772;8.768;2022-10-16T05:22:00;13.40;99.90
2387;DHT22;49473;50.772;8.768;2022-10-16T05:24:28;13.40;99.90
2387;DHT22;49473;50.772;8.768;2022-10-16T05:26:55;13.50;99.90
2387;DHT22;49473;50.772;8.768;2022-10-16T05:29:22;13.50;99.90
2387;DHT22;49473;50.772;8.768;2022-10-16T05:31:50;13.50;99.90
2387;DHT22;49473;50.772;8.768;2022-10-16T05:34:19;13.50;99.90
2387;DHT22;49473;50.772;8.768;2022-10-16T05:36:46;13.50;99.90
2387;DHT22;49473;50.772;8.768;2022-10-16T05:39:14;13.50;99.90
2387;DHT22;49473;50.772;8.768;2022-10-16T05:41:41;13.50;99.90
2387;DHT22;49473;50.772;8.768;2022-10-16T05:44:08;13.50;99.90
2387;DHT22;49473;50.772;8.768;2022-10-16T05:46:35;13.50;99.90
2387;DHT22;49473;50.772;8.768;2022-10-16T05:49:02;13.50;99.90
2387;DHT22;49473;50.772;8.768;2022-10-16T05:51:30;13.50;99.90
2387;DHT22;49473;50.772;8.768;2022-10-16T05:53:57;13.50;99.90
2387;DHT22;49473;50.772;8.768;2022-10-16T05:56:24;13.50;99.90
2387;DHT22;49473;50.772;8.768;2022-10-16T05:58:51;13.60;99.90
2387;DHT22;49473;50.772;8.768;2022-10-16T06:01:18;13.50;99.90
2387;DHT22;49473;50.772;8.768;2022-10-16T06:03:46;13.60;99.90
2387;DHT22;49473;50.772;8.768;2022-10-16T06:06:15;13.60;99.90
2387;DHT22;49473;50.772;8.768;2022-10-16T06:08:44;13.60;99.90
2387;DHT22;49473;50.772;8.768;2022-10-16T06:11:13;13.50;99.90
2387;DHT22;49473;50.772;8.768;2022-10-16T06:13:40;13.50;99.90
2387;DHT22;49473;50.772;8.768;2022-10-16T06:16:08;13.50;99.90
2387;DHT22;49473;50.772;8.768;2022-10-16T06:18:35;13.50;99.90
2387;DHT22;49473;50.772;8.768;2022-10-16T06:21:08;13.50;99.90
2387;DHT22;49473;50.772;8.768;2022-10-16T06:23:35;13.50;99.90
2387;DHT22;49473;50.772;8.768;2022-10-16T06:26:07;13.30;99.90
2387;DHT22;49473;50.772;8.768;2022-10-16T06:28:34;13.30;99.90
2387;DHT22;49473;50.772;8.768;2022-10-16T06:31:01;13.20;99.90
2387;DHT22;49473;50.772;8.768;2022-10-16T06:33:28;13.30;99.90
2387;DHT22;49473;50.772;8.768;2022-10-16T06:36:01;13.40;99.90
2387;DHT22;49473;50.772;8.768;2022-10-16T06:38:29;13.40;99.90
2387;DHT22;49473;50.772;8.768;2022-10-16T06:40:56;13.50;99.90
2387;DHT22;49473;50.772;8.768;2022-10-16T06:43:25;13.60;99.90
2387;DHT22;49473;50.772;8.768;2022-10-16T06:45:53;13.70;99.90
2387;DHT22;49473;50.772;8.768;2022-10-16T06:48:20;13.70;99.90
2387;DHT22;49473;50.772;8.768;2022-10-16T06:50:56;13.60;99.90
2387;DHT22;49473;50.772;8.768;2022-10-16T06:53:23;13.70;99.90
2387;DHT22;49473;50.772;8.768;2022-10-16T06:55:50;13.70;99.90
2387;DHT22;49473;50.772;8.768;2022-10-16T06:58:17;13.90;99.90
2387;DHT22;49473;50.772;8.768;2022-10-16T07:00:45;13.80;99.90
2387;DHT22;49473;50.772;8.768;2022-10-16T07:03:12;13.80;99.90
2387;DHT22;49473;50.772;8.768;2022-10-16T07:05:39;13.90;99.90
2387;DHT22;49473;50.772;8.768;2022-10-16T07:08:06;13.90;99.90
2387;DHT22;49473;50.772;8.768;2022-10-16T07:10:33;14.10;99.90
2387;DHT22;49473;50.772;8.768;2022-10-16T07:13:00;14.10;99.90
2387;DHT22;49473;50.772;8.768;2022-10-16T07:15:27;14.10;99.90
2387;DHT22;49473;50.772;8.768;2022-10-16T07:17:57;14.20;99.90
2387;DHT22;49473;50.772;8.768;2022-10-16T07:20:24;14.20;99.90
2387;DHT22;49473;50.772;8.768;2022-10-16T07:22:51;14.20;99.90
2387;DHT22;49473;50.772;8.768;2022-10-16T07:25:18;14.20;99.90
2387;DHT22;49473;50.772;8.768;2022-10-16T07:27:44;14.30;99.90
2387;DHT22;49473;50.772;8.768;2022-10-16T07:30:12;14.50;99.90
2387;DHT22;49473;50.772;8.768;2022-10-16T07:32:39;14.60;99.90
2387;DHT22;49473;50.772;8.768;2022-10-16T07:35:07;14.70;99.90
2387;DHT22;49473;50.772;8.768;2022-10-16T07:37:34;14.90;99.90
2387;DHT22;49473;50.772;8.768;2022-10-16T07:40:01;14.90;99.90
2387;DHT22;49473;50.772;8.768;2022-10-16T07:42:28;14.90;99.90
2387;DHT22;49473;50.772;8.768;2022-10-16T07:44:55;15.00;99.90
2387;DHT22;49473;50.772;8.768;2022-10-16T07:47:22;15.10;99.90
2387;DHT22;49473;50.772;8.768;2022-10-16T07:49:48;15.20;99.90
2387;DHT22;49473;50.772;8.768;2022-10-16T07:52:16;15.30;99.90
2387;DHT22;49473;50.772;8.768;2022-10-16T07:54:43;15.30;99.90
2387;DHT22;49473;50.772;8.768;2022-10-16T07:57:10;15.40;99.90
2387;DHT22;49473;50.772;8.768;2022-10-16T07:59:37;15.40;99.90
2387;DHT22;49473;50.772;8.768;2022-10-16T08:02:04;15.30;99.90
2387;DHT22;49473;50.772;8.768;2022-10-16T08:04:31;15.40;99.90
2387;DHT22;49473;50.772;8.768;2022-10-16T08:06:58;15.50;99.90
2387;DHT22;49473;50.772;8.768;2022-10-16T08:09:26;15.60;99.90
2387;DHT22;49473;50.772;8.768;2022-10-16T08:11:53;15.60;99.90
2387;DHT22;49473;50.772;8.768;2022-10-16T08:14:20;15.60;99.90
2387;DHT22;49473;50.772;8.768;2022-10-16T08:16:47;15.60;99.90
2387;DHT22;49473;50.772;8.768;2022-10-16T08:19:14;15.70;99.90
2387;DHT22;49473;50.772;8.768;2022-10-16T08:21:42;15.90;99.90
2387;DHT22;49473;50.772;8.768;2022-10-16T08:24:08;16.00;99.90
2387;DHT22;49473;50.772;8.768;2022-10-16T08:26:36;16.20;99.90
2387;DHT22;49473;50.772;8.768;2022-10-16T08:29:03;16.40;99.90
2387;DHT22;49473;50.772;8.768;2022-10-16T08:31:30;16.50;99.90
2387;DHT22;49473;50.772;8.768;2022-10-16T08:33:57;16.90;99.90
2387;DHT22;49473;50.772;8.768;2022-10-16T08:36:23;16.90;99.90
2387;DHT22;49473;50.772;8.768;2022-10-16T08:38:50;17.00;99.90
2387;DHT22;49473;50.772;8.768;2022-10-16T08:44:31;17.10;99.90
2387;DHT22;49473;50.772;8.768;2022-10-16T08:47:09;17.30;99.90
2387;DHT22;49473;50.772;8.768;2022-10-16T08:49:41;17.50;99.90
2387;DHT22;49473;50.772;8.768;2022-10-16T08:52:12;17.80;99.90
2387;DHT22;49473;50.772;8.768;2022-10-16T08:54:42;18.00;99.90
2387;DHT22;49473;50.772;8.768;2022-10-16T08:57:13;18.70;99.90
2387;DHT22;49473;50.772;8.768;2022-10-16T08:59:42;19.30;99.90
2387;DHT22;49473;50.772;8.768;2022-10-16T09:02:23;19.70;99.90
2387;DHT22;49473;50.772;8.768;2022-10-16T09:05:10;19.80;99.90
2387;DHT22;49473;50.772;8.768;2022-10-16T09:07:48;20.70;99.90
2387;DHT22;49473;50.772;8.768;2022-10-16T09:10:28;21.20;99.90
2387;DHT22;49473;50.772;8.768;2022-10-16T09:13:02;21.20;99.90
2387;DHT22;49473;50.772;8.768;2022-10-16T09:15:40;21.10;99.90
2387;DHT22;49473;50.772;8.768;2022-10-16T09:18:14;21.40;99.90
2387;DHT22;49473;50.772;8.768;2022-10-16T09:20:49;21.40;99.90
2387;DHT22;49473;50.772;8.768;2022-10-16T09:23:19;20.90;99.90
2387;DHT22;49473;50.772;8.768;2022-10-16T09:25:48;20.90;99.90
2387;DHT22;49473;50.772;8.768;2022-10-16T09:28:16;21.20;99.90
2387;DHT22;49473;50.772;8.768;2022-10-16T09:30:45;21.30;99.90
2387;DHT22;49473;50.772;8.768;2022-10-16T09:33:14;21.10;99.90
2387;DHT22;49473;50.772;8.768;2022-10-16T09:35:43;20.90;99.90
2387;DHT22;49473;50.772;8.768;2022-10-16T09:38:22;20.80;99.90
2387;DHT22;49473;50.772;8.768;2022-10-16T09:40:49;21.10;99.90
2387;DHT22;49473;50.772;8.768;2022-10-16T09:43:22;21.00;99.90
2387;DHT22;49473;50.772;8.768;2022-10-16T09:45:58;22.10;99.90
2387;DHT22;49473;50.772;8.768;2022-10-16T09:48:29;22.90;99.90
2387;DHT22;49473;50.772;8.768;2022-10-16T09:50:59;23.50;99.90
2387;DHT22;49473;50.772;8.768;2022-10-16T09:53:38;23.40;99.90
2387;DHT22;49473;50.772;8.768;2022-10-16T09:56:05;23.90;99.90
2387;DHT22;49473;50.772;8.768;2022-10-16T09:58:33;24.50;99.90
2387;DHT22;49473;50.772;8.768;2022-10-16T10:01:01;26.00;99.90
2387;DHT22;49473;50.772;8.768;2022-10-16T10:03:37;27.50;99.90
2387;DHT22;49473;50.772;8.768;2022-10-16T10:06:14;27.80;99.90
2387;DHT22;49473;50.772;8.768;2022-10-16T10:08:53;26.80;99.90
2387;DHT22;49473;50.772;8.768;2022-10-16T10:11:36;25.90;99.90
2387;DHT22;49473;50.772;8.768;2022-10-16T10:14:08;25.40;99.90
2387;DHT22;49473;50.772;8.768;2022-10-16T10:16:42;25.00;99.90
2387;DHT22;49473;50.772;8.768;2022-10-16T10:19:14;24.40;99.90
2387;DHT22;49473;50.772;8.768;2022-10-16T10:21:41;24.20;99.90
2387;DHT22;49473;50.772;8.768;2022-10-16T10:24:11;23.70;99.90
2387;DHT22;49473;50.772;8.768;2022-10-16T10:26:39;23.10;99.90
2387;DHT22;49473;50.772;8.768;2022-10-16T10:29:12;23.20;99.90
2387;DHT22;49473;50.772;8.768;2022-10-16T10:31:47;23.50;99.90
2387;DHT22;49473;50.772;8.768;2022-10-16T10:34:30;24.10;99.90
2387;DHT22;49473;50.772;8.768;2022-10-16T10:37:06;25.80;99.90
2387;DHT22;49473;50.772;8.768;2022-10-16T10:39:43;28.60;99.90
2387;DHT22;49473;50.772;8.768;2022-10-16T10:42:21;30.90;99.90
2387;DHT22;49473;50.772;8.768;2022-10-16T10:45:02;30.80;99.90
2387;DHT22;49473;50.772;8.768;2022-10-16T10:47:47;29.70;99.90
2387;DHT22;49473;50.772;8.768;2022-10-16T10:50:21;28.30;99.90
2387;DHT22;49473;50.772;8.768;2022-10-16T10:52:58;29.10;99.90
2387;DHT22;49473;50.772;8.768;2022-10-16T10:55:33;30.90;99.90
2387;DHT22;49473;50.772;8.768;2022-10-16T10:58:15;31.00;99.90
2387;DHT22;49473;50.772;8.768;2022-10-16T11:00:53;31.20;98.90
2387;DHT22;49473;50.772;8.768;2022-10-16T11:03:35;30.70;99.90
2387;DHT22;49473;50.772;8.768;2022-10-16T11:06:09;30.40;99.90
2387;DHT22;49473;50.772;8.768;2022-10-16T11:08:40;30.50;99.90
2387;DHT22;49473;50.772;8.768;2022-10-16T11:11:13;32.40;98.90
2387;DHT22;49473;50.772;8.768;2022-10-16T11:13:45;33.70;94.50
2387;DHT22;49473;50.772;8.768;2022-10-16T11:16:16;34.60;92.50
2387;DHT22;49473;50.772;8.768;2022-10-16T11:18:51;35.30;89.70
2387;DHT22;49473;50.772;8.768;2022-10-16T11:21:21;36.30;86.40
2387;DHT22;49473;50.772;8.768;2022-10-16T11:23:53;36.80;80.60
2387;DHT22;49473;50.772;8.768;2022-10-16T11:26:24;37.60;76.50
2387;DHT22;49473;50.772;8.768;2022-10-16T11:28:55;38.10;73.20
2387;DHT22;49473;50.772;8.768;2022-10-16T11:31:28;38.50;72.80
2387;DHT22;49473;50.772;8.768;2022-10-16T11:34:03;39.00;70.50
2387;DHT22;49473;50.772;8.768;2022-10-16T11:36:34;38.90;67.10
2387;DHT22;49473;50.772;8.768;2022-10-16T11:39:10;39.00;68.40
2387;DHT22;49473;50.772;8.768;2022-10-16T11:41:44;38.80;67.60
2387;DHT22;49473;50.772;8.768;2022-10-16T11:44:23;38.40;66.80
2387;DHT22;49473;50.772;8.768;2022-10-16T11:47:01;38.50;64.50
2387;DHT22;49473;50.772;8.768;2022-10-16T11:49:32;39.10;66.30
2387;DHT22;49473;50.772;8.768;2022-10-16T11:52:05;39.20;64.30
2387;DHT22;49473;50.772;8.768;2022-10-16T11:54:39;38.40;63.90
2387;DHT22;49473;50.772;8.768;2022-10-16T11:57:14;38.90;63.80
2387;DHT22;49473;50.772;8.768;2022-10-16T11:59:46;39.10;60.90
2387;DHT22;49473;50.772;8.768;2022-10-16T12:02:30;38.90;62.30
2387;DHT22;49473;50.772;8.768;2022-10-16T12:05:17;39.10;62.10
2387;DHT22;49473;50.772;8.768;2022-10-16T12:07:51;39.40;59.80
2387;DHT22;49473;50.772;8.768;2022-10-16T12:10:23;39.40;59.80
2387;DHT22;49473;50.772;8.768;2022-10-16T12:12:50;38.80;58.40
2387;DHT22;49473;50.772;8.768;2022-10-16T12:15:23;36.90;60.30
2387;DHT22;49473;50.772;8.768;2022-10-16T12:17:50;35.80;60.90
2387;DHT22;49473;50.772;8.768;2022-10-16T12:20:26;35.50;63.30
2387;DHT22;49473;50.772;8.768;2022-10-16T12:22:56;35.80;64.20
2387;DHT22;49473;50.772;8.768;2022-10-16T12:25:26;35.90;63.40
2387;DHT22;49473;50.772;8.768;2022-10-16T12:27:59;35.70;64.00
2387;DHT22;49473;50.772;8.768;2022-10-16T12:30:29;36.60;62.80
2387;DHT22;49473;50.772;8.768;2022-10-16T12:32:57;37.20;62.10
2387;DHT22;49473;50.772;8.768;2022-10-16T12:35:29;37.70;62.10
2387;DHT22;49473;50.772;8.768;2022-10-16T12:38:11;38.00;59.60
2387;DHT22;49473;50.772;8.768;2022-10-16T12:40:42;37.20;58.30
2387;DHT22;49473;50.772;8.768;2022-10-16T12:43:26;37.70;61.90
2387;DHT22;49473;50.772;8.768;2022-10-16T12:46:04;37.80;58.80
2387;DHT22;49473;50.772;8.768;2022-10-16T12:48:31;37.80;59.10
2387;DHT22;49473;50.772;8.768;2022-10-16T12:51:09;37.60;59.60
2387;DHT22;49473;50.772;8.768;2022-10-16T12:53:36;36.60;59.70
2387;DHT22;49473;50.772;8.768;2022-10-16T12:56:09;35.70;62.00
2387;DHT22;49473;50.772;8.768;2022-10-16T12:58:54;34.90;60.00
2387;DHT22;49473;50.772;8.768;2022-10-16T13:01:41;34.30;63.70
2387;DHT22;49473;50.772;8.768;2022-10-16T13:04:25;32.70;65.50
2387;DHT22;49473;50.772;8.768;2022-10-16T13:07:03;30.90;69.20
2387;DHT22;49473;50.772;8.768;2022-10-16T13:09:53;29.40;72.90
2387;DHT22;49473;50.772;8.768;2022-10-16T13:12:39;28.10;76.20
2387;DHT22;49473;50.772;8.768;2022-10-16T13:15:37;27.10;80.10
2387;DHT22;49473;50.772;8.768;2022-10-16T13:18:13;26.30;83.90
2387;DHT22;49473;50.772;8.768;2022-10-16T13:20:56;25.00;86.20
2387;DHT22;49473;50.772;8.768;2022-10-16T13:23:31;24.30;91.30
2387;DHT22;49473;50.772;8.768;2022-10-16T13:26:09;23.90;93.20
2387;DHT22;49473;50.772;8.768;2022-10-16T13:28:40;23.20;94.30
2387;DHT22;49473;50.772;8.768;2022-10-16T13:31:15;22.80;95.40
2387;DHT22;49473;50.772;8.768;2022-10-16T13:33:46;22.40;97.30
2387;DHT22;49473;50.772;8.768;2022-10-16T13:36:21;22.10;99.60
2387;DHT22;49473;50.772;8.768;2022-10-16T13:39:00;22.00;99.90
2387;DHT22;49473;50.772;8.768;2022-10-16T13:41:27;21.90;99.90
2387;DHT22;49473;50.772;8.768;2022-10-16T13:43:54;21.90;99.90
2387;DHT22;49473;50.772;8.768;2022-10-16T13:46:24;21.80;99.90
2387;DHT22;49473;50.772;8.768;2022-10-16T13:48:57;21.80;99.90
2387;DHT22;49473;50.772;8.768;2022-10-16T13:51:24;21.80;99.90
2387;DHT22;49473;50.772;8.768;2022-10-16T13:53:55;21.70;99.90
2387;DHT22;49473;50.772;8.768;2022-10-16T13:56:24;21.50;99.90
2387;DHT22;49473;50.772;8.768;2022-10-16T13:58:59;21.60;99.90
2387;DHT22;49473;50.772;8.768;2022-10-16T14:01:28;21.80;99.90
2387;DHT22;49473;50.772;8.768;2022-10-16T14:04:01;22.00;99.90
2387;DHT22;49473;50.772;8.768;2022-10-16T14:06:29;22.20;99.90
2387;DHT22;49473;50.772;8.768;2022-10-16T14:09:00;22.00;99.90
2387;DHT22;49473;50.772;8.768;2022-10-16T14:11:27;21.80;99.90
2387;DHT22;49473;50.772;8.768;2022-10-16T14:13:55;21.90;99.90
2387;DHT22;49473;50.772;8.768;2022-10-16T14:16:23;21.80;99.90
2387;DHT22;49473;50.772;8.768;2022-10-16T14:18:57;21.70;99.90
2387;DHT22;49473;50.772;8.768;2022-10-16T14:21:24;21.60;99.90
2387;DHT22;49473;50.772;8.768;2022-10-16T14:23:52;21.60;99.90
2387;DHT22;49473;50.772;8.768;2022-10-16T14:26:22;21.50;99.90
2387;DHT22;49473;50.772;8.768;2022-10-16T14:29:02;21.50;99.90
2387;DHT22;49473;50.772;8.768;2022-10-16T14:31:31;21.40;99.90
2387;DHT22;49473;50.772;8.768;2022-10-16T14:33:59;21.30;99.90
2387;DHT22;49473;50.772;8.768;2022-10-16T14:36:27;21.30;99.90
2387;DHT22;49473;50.772;8.768;2022-10-16T14:38:59;21.40;99.90
2387;DHT22;49473;50.772;8.768;2022-10-16T14:41:29;21.40;99.90
2387;DHT22;49473;50.772;8.768;2022-10-16T14:43:58;21.50;99.90
2387;DHT22;49473;50.772;8.768;2022-10-16T14:46:31;21.50;99.90
2387;DHT22;49473;50.772;8.768;2022-10-16T14:49:02;21.40;99.90
2387;DHT22;49473;50.772;8.768;2022-10-16T14:51:30;21.10;99.90
2387;DHT22;49473;50.772;8.768;2022-10-16T14:53:57;20.90;99.90
2387;DHT22;49473;50.772;8.768;2022-10-16T14:56:25;20.70;99.90
2387;DHT22;49473;50.772;8.768;2022-10-16T14:58:56;20.60;99.90
2387;DHT22;49473;50.772;8.768;2022-10-16T15:01:23;20.50;99.90
2387;DHT22;49473;50.772;8.768;2022-10-16T15:03:50;20.50;99.90
2387;DHT22;49473;50.772;8.768;2022-10-16T15:06:20;20.40;99.90
2387;DHT22;49473;50.772;8.768;2022-10-16T15:08:46;20.40;99.90
2387;DHT22;49473;50.772;8.768;2022-10-16T15:11:15;20.30;99.90
2387;DHT22;49473;50.772;8.768;2022-10-16T15:13:42;20.50;99.90
2387;DHT22;49473;50.772;8.768;2022-10-16T15:16:12;20.30;99.90
2387;DHT22;49473;50.772;8.768;2022-10-16T15:18:39;20.10;99.90
2387;DHT22;49473;50.772;8.768;2022-10-16T15:21:06;20.10;99.90
2387;DHT22;49473;50.772;8.768;2022-10-16T15:23:33;20.00;99.90
2387;DHT22;49473;50.772;8.768;2022-10-16T15:26:00;19.80;99.90
2387;DHT22;49473;50.772;8.768;2022-10-16T15:28:26;19.70;99.90
2387;DHT22;49473;50.772;8.768;2022-10-16T15:30:55;19.70;99.90
2387;DHT22;49473;50.772;8.768;2022-10-16T15:33:24;19.70;99.90
2387;DHT22;49473;50.772;8.768;2022-10-16T15:35:53;19.60;99.90
2387;DHT22;49473;50.772;8.768;2022-10-16T15:38:21;19.50;99.90
2387;DHT22;49473;50.772;8.768;2022-10-16T15:40:49;19.40;99.90
2387;DHT22;49473;50.772;8.768;2022-10-16T15:43:16;19.30;99.90
2387;DHT22;49473;50.772;8.768;2022-10-16T15:45:43;19.40;99.90
2387;DHT22;49473;50.772;8.768;2022-10-16T15:48:11;19.40;99.90
2387;DHT22;49473;50.772;8.768;2022-10-16T15:50:40;19.30;99.90
2387;DHT22;49473;50.772;8.768;2022-10-16T15:53:08;19.10;99.90
2387;DHT22;49473;50.772;8.768;2022-10-16T15:55:35;19.20;99.90
2387;DHT22;49473;50.772;8.768;2022-10-16T15:58:03;19.00;99.90
2387;DHT22;49473;50.772;8.768;2022-10-16T16:00:31;18.90;99.90
2387;DHT22;49473;50.772;8.768;2022-10-16T16:02:57;18.80;99.90
2387;DHT22;49473;50.772;8.768;2022-10-16T16:05:24;18.70;99.90
2387;DHT22;49473;50.772;8.768;2022-10-16T16:07:54;18.50;99.90